Time;durP1;ratioP1;P1;durP2;ratioP2;P2;SDS_P1;SDS_P2;PMS_P1;PMS_P2;Temp;Humidity;BMP_temperature;BMP_pressure;BME280_temperature;BME280_humidity;BME280_pressure;Samples;Min_cycle;Max_cycle;Signal;HPM_P1;HPM_P2
2022/06/04 00:03:36;;;;;;;4.40;4.00;;;15.70;99.90;;;;;;8404522;28;20184;-68
2022/06/04 00:07:38;;;;;;;4.53;3.93;;;15.60;1.00;;;;;;8401393;28;20182;-69
2022/06/04 00:16:00;;;;;;;3.20;2.90;;;15.50;1.00;;;;;;8403912;28;20187;-70
2022/06/04 00:20:02;;;;;;;5.17;3.30;;;15.70;99.90;;;;;;8400610;28;20208;-68
2022/06/04 00:24:03;;;;;;;3.27;2.97;;;15.80;25.50;;;;;;8402761;28;20177;-68
2022/06/04 00:28:07;;;;;;;3.73;3.40;;;15.80;22.50;;;;;;8395814;28;20224;-67
2022/06/04 00:32:09;;;;;;;4.30;3.07;;;15.80;1.00;;;;;;8397951;28;20184;-67
2022/06/04 00:36:10;;;;;;;4.17;3.40;;;15.90;1.00;;;;;;8396811;28;20189;-70
2022/06/04 00:40:27;;;;;;;4.87;3.30;;;16.00;99.90;;;;;;8399767;28;20216;-67
2022/06/04 00:44:31;;;;;;;4.40;3.40;;;16.00;99.90;;;;;;8394689;28;20176;-68
2022/06/04 00:48:32;;;;;;;4.40;3.00;;;16.20;99.90;;;;;;8402399;28;20181;-68
2022/06/04 00:52:33;;;;;;;3.90;3.40;;;16.20;99.90;;;;;;8402683;28;20187;-67
2022/06/04 00:56:46;;;;;;;3.40;3.10;;;16.20;99.90;;;;;;8399249;28;20180;-68
2022/06/04 01:00:56;;;;;;;5.47;3.37;;;16.20;99.90;;;;;;8411695;28;20197;-67
2022/06/04 01:04:57;;;;;;;5.20;2.90;;;16.20;99.90;;;;;;8400365;28;20200;-68
2022/06/04 01:09:33;;;;;;;5.47;3.47;;;16.10;99.90;;;;;;8398866;28;20177;-68
2022/06/04 01:13:40;;;;;;;3.87;3.07;;;16.00;99.90;;;;;;8404375;28;20173;-69
2022/06/04 01:18:12;;;;;;;6.33;4.23;;;15.90;1.00;;;;;;8412744;28;20176;-68
2022/06/04 01:22:16;;;;;;;5.00;4.17;;;15.60;99.90;;;;;;8401731;28;20211;-69
2022/06/04 01:26:32;;;;;;;4.60;4.07;;;15.40;99.90;;;;;;8404841;28;20445;-69
2022/06/04 01:30:36;;;;;;;9.40;4.40;;;15.20;1.00;;;;;;8401822;28;20180;-69
2022/06/04 01:35:05;;;;;;;4.33;3.40;;;15.10;48.90;;;;;;8403734;28;20468;-68
2022/06/04 01:39:13;;;;;;;4.30;3.90;;;14.90;99.90;;;;;;8385468;28;20203;-70
2022/06/04 01:43:15;;;;;;;4.60;4.03;;;14.70;1.00;;;;;;8401099;28;20276;-69
2022/06/04 01:47:17;;;;;;;4.50;4.10;;;14.60;99.90;;;;;;8405230;28;20543;-69
2022/06/04 01:51:24;;;;;;;4.47;4.07;;;14.60;99.90;;;;;;8400762;28;20270;-68
2022/06/04 01:55:34;;;;;;;4.40;3.90;;;14.60;99.90;;;;;;8404533;28;20519;-68
2022/06/04 01:59:47;;;;;;;4.63;4.00;;;14.60;99.90;;;;;;8407560;28;20200;-68
2022/06/04 02:03:56;;;;;;;5.03;3.50;;;14.70;99.90;;;;;;8405725;28;20588;-68
2022/06/04 02:08:01;;;;;;;4.40;3.50;;;14.70;99.90;;;;;;8410582;28;20184;-68
2022/06/04 02:12:04;;;;;;;6.57;4.33;;;14.70;99.90;;;;;;8402579;28;20283;-69
2022/06/04 02:16:21;;;;;;;4.67;4.07;;;14.80;99.90;;;;;;8395846;28;20230;-69
2022/06/04 02:20:23;;;;;;;4.33;3.93;;;14.70;99.90;;;;;;8401750;28;20208;-69
2022/06/04 02:24:24;;;;;;;4.20;3.80;;;14.70;1.00;;;;;;8402394;28;20269;-69
2022/06/04 02:28:25;;;;;;;4.37;3.83;;;14.70;99.90;;;;;;8401915;28;20209;-69
2022/06/04 02:32:33;;;;;;;5.40;4.67;;;14.70;99.90;;;;;;8403044;28;20250;-69
2022/06/04 02:36:38;;;;;;;4.80;4.33;;;14.70;98.80;;;;;;8409674;28;20212;-70
2022/06/04 02:40:44;;;;;;;5.17;4.40;;;14.70;1.00;;;;;;8400320;28;20231;-69
2022/06/04 02:45:11;;;;;;;6.90;5.27;;;14.80;1.00;;;;;;8401135;28;20188;-65
2022/06/04 02:49:39;;;;;;;5.43;4.30;;;14.70;99.90;;;;;;8401413;28;20174;-65
2022/06/04 02:53:41;;;;;;;4.97;4.37;;;14.80;99.90;;;;;;8400404;28;20264;-64
2022/06/04 02:57:47;;;;;;;9.30;5.23;;;15.00;99.90;;;;;;8407690;28;20176;-65
2022/06/04 03:01:52;;;;;;;7.57;5.87;;;15.20;99.90;;;;;;8406032;28;20217;-62
2022/06/04 03:05:56;;;;;;;6.53;5.63;;;15.30;99.90;;;;;;8401175;28;20268;-65
2022/06/04 03:10:06;;;;;;;6.80;4.80;;;15.30;99.90;;;;;;8403942;28;20260;-64
2022/06/04 03:14:07;;;;;;;5.20;4.37;;;15.30;99.90;;;;;;8406560;28;20283;-65
2022/06/04 03:18:08;;;;;;;6.03;4.67;;;15.30;1.00;;;;;;8404961;28;20184;-68
2022/06/04 03:22:08;;;;;;;5.50;5.00;;;15.30;1.00;;;;;;8399912;28;20215;-64
2022/06/04 03:26:09;;;;;;;5.90;5.30;;;15.30;99.90;;;;;;8396396;28;20295;-64
2022/06/04 03:30:11;;;;;;;5.20;4.70;;;15.30;99.90;;;;;;8402376;28;20230;-65
2022/06/04 03:34:12;;;;;;;6.70;5.50;;;15.30;1.00;;;;;;8408171;28;20227;-63
2022/06/04 03:38:13;;;;;;;7.63;5.67;;;15.20;47.50;;;;;;8405260;28;20186;-63
2022/06/04 03:42:14;;;;;;;8.07;6.27;;;15.10;99.90;;;;;;8405055;28;20212;-64
2022/06/04 03:46:15;;;;;;;8.23;7.33;;;15.00;1.00;;;;;;8397264;28;20181;-64
2022/06/04 03:50:17;;;;;;;11.27;7.97;;;14.90;99.90;;;;;;8405935;28;20568;-63
2022/06/04 03:54:52;;;;;;;8.60;7.70;;;14.70;1.00;;;;;;8395318;28;20181;-64
2022/06/04 03:58:39;;;;;;;7.93;7.13;;;14.60;99.90;;;;;;8405987;28;20189;-63
2022/06/04 04:02:41;;;;;;;9.03;8.03;;;14.70;31.80;;;;;;8402074;28;20219;-63
2022/06/04 04:06:42;;;;;;;10.30;8.90;;;14.70;99.90;;;;;;8398811;28;20263;-64
2022/06/04 04:10:44;;;;;;;11.60;9.40;;;14.80;99.90;;;;;;8402453;28;20189;-66
2022/06/04 04:14:45;;;;;;;10.50;9.50;;;14.80;99.90;;;;;;8396911;28;20189;-64
2022/06/04 04:18:46;;;;;;;11.70;10.47;;;14.80;99.90;;;;;;8395857;28;20412;-63
2022/06/04 04:22:47;;;;;;;10.13;9.13;;;14.80;99.90;;;;;;8404475;28;20197;-63
2022/06/04 04:26:47;;;;;;;10.77;9.67;;;14.80;99.90;;;;;;8395015;28;20278;-64
2022/06/04 04:30:48;;;;;;;10.97;9.90;;;14.80;99.90;;;;;;8395076;28;20192;-64
2022/06/04 04:34:49;;;;;;;15.03;10.60;;;14.80;99.90;;;;;;8405978;28;20198;-64
2022/06/04 04:38:52;;;;;;;12.30;10.87;;;14.80;99.90;;;;;;8399665;28;20195;-65
2022/06/04 04:42:53;;;;;;;11.73;10.60;;;14.80;99.90;;;;;;8405104;28;20209;-63
2022/06/04 04:46:53;;;;;;;11.17;10.07;;;14.90;99.90;;;;;;8403188;28;20181;-63
2022/06/04 04:50:54;;;;;;;12.67;10.97;;;14.90;99.90;;;;;;8398854;28;20416;-64
2022/06/04 04:54:55;;;;;;;11.80;10.70;;;14.90;99.90;;;;;;8396747;28;20185;-64
2022/06/04 04:58:56;;;;;;;11.50;10.43;;;15.00;99.90;;;;;;8398707;28;20188;-63
2022/06/04 05:02:58;;;;;;;11.60;10.03;;;15.00;99.90;;;;;;8400226;28;20246;-62
2022/06/04 05:06:59;;;;;;;11.43;10.30;;;15.00;99.90;;;;;;8397947;28;20200;-65
2022/06/04 05:11:11;;;;;;;11.60;9.80;;;15.10;99.90;;;;;;8396636;28;20196;-63
2022/06/04 05:15:12;;;;;;;10.63;9.60;;;15.20;99.90;;;;;;8401066;28;20177;-64
2022/06/04 05:19:13;;;;;;;10.37;9.30;;;15.40;99.90;;;;;;8407886;28;20176;-64
2022/06/04 05:23:14;;;;;;;9.20;8.27;;;15.50;99.90;;;;;;8406274;28;20187;-65
2022/06/04 05:27:15;;;;;;;9.70;8.70;;;15.70;99.90;;;;;;8397806;28;20216;-67
2022/06/04 05:31:16;;;;;;;9.43;8.30;;;15.80;1.00;;;;;;8397963;28;20192;-64
2022/06/04 05:35:17;;;;;;;8.37;7.57;;;15.90;1.00;;;;;;8402976;28;20196;-64
2022/06/04 05:39:19;;;;;;;10.53;8.63;;;16.00;99.90;;;;;;8400157;28;20192;-65
2022/06/04 05:43:19;;;;;;;10.17;9.27;;;16.10;1.00;;;;;;8399851;28;20182;-65
2022/06/04 05:47:20;;;;;;;8.80;7.97;;;16.10;20.40;;;;;;8395662;28;20233;-64
2022/06/04 05:51:24;;;;;;;7.47;6.77;;;16.20;51.20;;;;;;8401761;28;20180;-65
2022/06/04 05:55:26;;;;;;;8.23;7.43;;;16.40;1.00;;;;;;8411784;28;20284;-65
2022/06/04 05:59:26;;;;;;;7.83;7.03;;;16.70;99.90;;;;;;8407365;28;20185;-65
2022/06/04 06:03:27;;;;;;;9.83;8.83;;;17.00;99.90;;;;;;8401253;28;20185;-64
2022/06/04 06:07:28;;;;;;;8.93;8.03;;;17.20;1.00;;;;;;8403166;28;20188;-64
2022/06/04 06:11:29;;;;;;;8.63;7.00;;;17.20;1.00;;;;;;8409315;28;20217;-66
2022/06/04 06:15:29;;;;;;;7.30;6.60;;;17.40;99.90;;;;;;8404881;28;20189;-64
2022/06/04 06:19:30;;;;;;;7.10;6.40;;;17.50;99.90;;;;;;8407657;28;20181;-64
2022/06/04 06:23:31;;;;;;;9.07;7.53;;;17.60;99.90;;;;;;8410634;28;21281;-65
2022/06/04 06:27:33;;;;;;;7.90;7.10;;;17.60;99.90;;;;;;8412237;28;20213;-64
2022/06/04 06:31:34;;;;;;;9.33;7.77;;;17.70;99.90;;;;;;8413092;28;20185;-66
2022/06/04 06:35:35;;;;;;;8.43;7.63;;;17.70;99.90;;;;;;8410022;28;20188;-65
2022/06/04 06:39:36;;;;;;;8.00;7.20;;;17.90;99.90;;;;;;8405583;28;20262;-66
2022/06/04 06:44:10;;;;;;;7.20;6.37;;;18.00;1.00;;;;;;8406736;28;20189;-65
2022/06/04 06:48:04;;;;;;;7.47;6.77;;;18.20;99.90;;;;;;8406176;28;20189;-67
2022/06/04 06:52:06;;;;;;;7.60;6.47;;;18.40;1.00;;;;;;8406122;28;20184;-65
2022/06/04 06:56:09;;;;;;;7.23;6.53;;;18.60;1.00;;;;;;8403597;28;20192;-65
2022/06/04 07:00:10;;;;;;;8.63;7.73;;;18.90;99.90;;;;;;8401555;28;20208;-66
2022/06/04 07:04:11;;;;;;;6.20;5.53;;;19.00;99.90;;;;;;8400732;28;20184;-65
2022/06/04 07:08:12;;;;;;;7.00;6.30;;;19.00;99.90;;;;;;8400177;28;20173;-65
2022/06/04 07:12:13;;;;;;;5.90;5.40;;;19.00;99.90;;;;;;8403793;28;20253;-65
2022/06/04 07:16:14;;;;;;;7.80;6.47;;;19.10;99.90;;;;;;8401880;28;20264;-66
2022/06/04 07:20:14;;;;;;;6.40;5.80;;;19.10;1.00;;;;;;8405231;28;20195;-66
2022/06/04 07:24:15;;;;;;;6.73;6.00;;;19.20;1.00;;;;;;8406399;28;20255;-67
2022/06/04 07:28:16;;;;;;;7.83;5.70;;;19.30;99.90;;;;;;8407657;28;20212;-67
2022/06/04 07:32:17;;;;;;;6.57;5.87;;;19.50;99.90;;;;;;8402635;28;20238;-65
2022/06/04 07:36:22;;;;;;;8.00;5.00;;;19.70;99.90;;;;;;8400287;28;20268;-66
2022/06/04 07:40:23;;;;;;;5.93;5.30;;;19.90;99.90;;;;;;8403034;28;20266;-65
2022/06/04 07:44:25;;;;;;;5.00;4.50;;;20.00;99.90;;;;;;8393775;28;20173;-67
2022/06/04 07:48:26;;;;;;;5.00;4.57;;;20.00;99.90;;;;;;8404723;28;20177;-65
2022/06/04 07:52:27;;;;;;;5.60;4.90;;;20.10;99.90;;;;;;8401486;28;20192;-63
2022/06/04 07:56:28;;;;;;;5.30;4.80;;;20.20;99.90;;;;;;8397948;28;20288;-65
2022/06/04 08:00:29;;;;;;;5.20;4.80;;;20.30;99.90;;;;;;8406306;28;20205;-65
2022/06/04 08:04:30;;;;;;;5.20;4.70;;;20.40;99.90;;;;;;8398131;28;20596;-65
2022/06/04 08:08:32;;;;;;;6.67;4.97;;;20.60;99.90;;;;;;8400559;28;20208;-65
2022/06/04 08:12:33;;;;;;;6.20;5.70;;;20.70;99.90;;;;;;8399527;28;20177;-67
2022/06/04 08:16:38;;;;;;;7.70;4.63;;;20.90;97.70;;;;;;8399910;28;20195;-65
2022/06/04 08:20:43;;;;;;;4.60;4.20;;;21.10;1.00;;;;;;8399737;28;20209;-64
2022/06/04 08:24:47;;;;;;;4.53;4.13;;;21.30;1.00;;;;;;8406962;28;20211;-66
2022/06/04 08:28:48;;;;;;;7.53;4.37;;;21.40;1.00;;;;;;8395809;28;20285;-65
2022/06/04 08:32:49;;;;;;;6.83;6.00;;;21.50;1.00;;;;;;8396968;28;20189;-65
2022/06/04 08:36:50;;;;;;;6.37;5.77;;;21.40;1.00;;;;;;8397357;28;20184;-65
2022/06/04 08:40:58;;;;;;;5.50;5.00;;;21.10;1.00;;;;;;8404017;28;20208;-66
2022/06/04 08:45:00;;;;;;;6.50;6.00;;;20.90;60.40;;;;;;8400251;28;20183;-65
2022/06/04 08:49:11;;;;;;;6.60;5.87;;;20.40;99.90;;;;;;8402174;28;20181;-64
2022/06/04 08:53:20;;;;;;;6.90;6.20;;;19.90;1.00;;;;;;8404212;28;20197;-64
2022/06/04 08:57:34;;;;;;;7.43;6.73;;;19.70;1.00;;;;;;8404689;28;20219;-63
2022/06/04 09:01:42;;;;;;;8.17;7.30;;;19.50;99.90;;;;;;8399220;28;20213;-66
2022/06/04 09:05:52;;;;;;;8.07;7.30;;;19.30;14.80;;;;;;8402093;28;20181;-64
2022/06/04 09:10:01;;;;;;;8.73;8.03;;;19.00;1.00;;;;;;8404899;28;20196;-64
2022/06/04 09:14:19;;;;;;;10.27;9.20;;;18.90;1.00;;;;;;8396883;28;20272;-64
2022/06/04 09:18:41;;;;;;;9.23;8.30;;;18.80;1.00;;;;;;8398629;28;20224;-64
2022/06/04 09:22:45;;;;;;;11.17;10.07;;;18.70;1.00;;;;;;8399617;28;20212;-64
2022/06/04 09:27:04;;;;;;;9.90;9.00;;;18.50;99.90;;;;;;8395794;28;20221;-64
2022/06/04 09:31:32;;;;;;;10.87;9.70;;;18.60;1.00;;;;;;8409372;28;20184;-65
2022/06/04 09:35:39;;;;;;;11.20;10.10;;;18.70;99.90;;;;;;8410563;28;20215;-65
2022/06/04 09:39:44;;;;;;;10.27;9.27;;;18.70;99.90;;;;;;8409600;28;20185;-66
2022/06/04 09:44:08;;;;;;;13.47;8.97;;;18.90;1.00;;;;;;8411954;28;20481;-65
2022/06/04 09:48:25;;;;;;;10.90;9.77;;;18.90;1.00;;;;;;8404288;28;20274;-68
2022/06/04 09:52:34;;;;;;;9.97;9.07;;;18.90;1.00;;;;;;8413206;28;20223;-65
2022/06/04 09:56:38;;;;;;;10.67;9.57;;;18.90;82.50;;;;;;8398587;28;20196;-68
2022/06/04 10:00:40;;;;;;;10.03;8.73;;;18.90;1.00;;;;;;8406844;28;20317;-67
2022/06/04 10:04:46;;;;;;;11.17;9.37;;;19.00;99.90;;;;;;8402224;28;20181;-67
2022/06/04 10:17:39;;;;;;;13.00;11.80;;;19.50;99.90;;;;;;8401238;28;20200;-64
2022/06/04 10:21:43;;;;;;;11.40;10.33;;;19.60;99.90;;;;;;8400791;28;20200;-64
2022/06/04 10:25:53;;;;;;;9.30;8.33;;;19.50;93.50;;;;;;8405382;28;20209;-62
2022/06/04 10:30:32;;;;;;;9.60;8.80;;;19.60;37.50;;;;;;8409672;28;20235;-68
2022/06/04 10:34:35;;;;;;;10.77;9.67;;;19.60;99.90;;;;;;8400585;28;20396;-64
2022/06/04 10:38:48;;;;;;;12.60;8.90;;;19.70;99.90;;;;;;8408654;28;20299;-66
2022/06/04 10:43:08;;;;;;;8.87;7.97;;;19.90;99.90;;;;;;8397543;28;20299;-70
2022/06/04 10:47:30;;;;;;;8.43;7.73;;;20.10;1.00;;;;;;8407822;28;20182;-66
2022/06/04 10:51:57;;;;;;;8.87;7.93;;;20.10;99.90;;;;;;8405780;28;20403;-66
2022/06/04 10:56:04;;;;;;;9.23;7.83;;;20.30;99.90;;;;;;8392084;28;20250;-63
2022/06/04 11:00:14;;;;;;;9.00;7.10;;;20.40;82.70;;;;;;8404595;28;20196;-65
2022/06/04 11:04:20;;;;;;;7.10;6.50;;;20.50;99.90;;;;;;8402048;28;20185;-65
2022/06/04 11:08:49;;;;;;;10.03;6.97;;;20.40;99.90;;;;;;8399322;28;20181;-66
2022/06/04 11:13:15;;;;;;;8.93;6.47;;;20.40;99.90;;;;;;8399028;28;20192;-65
2022/06/04 11:17:25;;;;;;;6.87;6.20;;;20.60;99.90;;;;;;8394802;28;20185;-67
2022/06/04 11:21:43;;;;;;;6.77;6.17;;;20.90;97.70;;;;;;8401887;28;20240;-65
2022/06/04 11:25:48;;;;;;;6.73;5.97;;;21.20;1.00;;;;;;8398430;28;20220;-64
2022/06/04 11:29:52;;;;;;;8.17;7.40;;;21.00;1.00;;;;;;8409051;28;20212;-67
2022/06/04 11:33:52;;;;;;;6.83;6.23;;;20.90;1.00;;;;;;8400559;28;20210;-63
2022/06/04 11:38:05;;;;;;;7.23;6.63;;;20.80;1.00;;;;;;8402081;28;20185;-65
2022/06/04 11:42:56;;;;;;;7.13;6.47;;;20.70;64.50;;;;;;8398182;28;20649;-64
2022/06/04 11:47:15;;;;;;;8.17;7.40;;;20.70;15.70;;;;;;8259551;28;20251;-65
2022/06/04 11:51:49;;;;;;;7.03;6.30;;;20.70;1.00;;;;;;8346725;28;20227;-67
2022/06/04 11:55:58;;;;;;;7.33;6.27;;;20.70;1.00;;;;;;8403430;28;20223;-65
2022/06/04 12:00:22;;;;;;;8.00;7.30;;;20.50;27.10;;;;;;8400167;28;20201;-70
2022/06/04 12:04:26;;;;;;;7.10;6.43;;;20.70;1.00;;;;;;8406489;28;20276;-66
2022/06/04 12:08:37;;;;;;;7.53;6.83;;;20.80;1.00;;;;;;8408818;28;20168;-65
2022/06/04 12:12:50;;;;;;;8.97;7.40;;;20.90;1.00;;;;;;8404456;28;20189;-63
2022/06/04 12:17:06;;;;;;;8.87;6.60;;;20.90;1.00;;;;;;8404550;28;20186;-65
2022/06/04 12:26:01;;;;;;;7.80;7.10;;;20.70;99.90;;;;;;8399231;28;20293;-63
2022/06/04 12:30:33;;;;;;;8.37;6.77;;;20.70;99.90;;;;;;8401068;28;20208;-65
2022/06/04 12:34:37;;;;;;;6.47;5.93;;;20.70;99.90;;;;;;8399506;28;20192;-65
2022/06/04 12:38:44;;;;;;;8.27;6.87;;;20.60;99.90;;;;;;8398516;28;20220;-65
2022/06/04 12:43:06;;;;;;;7.30;6.70;;;20.50;99.90;;;;;;8395883;28;20208;-64
2022/06/04 12:47:31;;;;;;;7.07;6.43;;;20.60;99.90;;;;;;8400668;28;20180;-64
2022/06/04 12:51:46;;;;;;;6.70;5.50;;;20.80;99.90;;;;;;8395062;28;20192;-68
2022/06/04 12:56:04;;;;;;;5.60;5.10;;;21.10;74.60;;;;;;8394613;28;20193;-64
2022/06/04 13:00:13;;;;;;;5.50;4.97;;;21.40;1.00;;;;;;8400170;28;20294;-66
2022/06/04 13:04:14;;;;;;;6.47;5.87;;;21.70;1.00;;;;;;8393769;28;20181;-65
2022/06/04 13:08:36;;;;;;;6.47;5.10;;;21.80;1.00;;;;;;8405404;28;20180;-64
2022/06/04 13:12:51;;;;;;;5.90;5.30;;;22.00;1.00;;;;;;8390978;28;20204;-64
2022/06/04 13:16:58;;;;;;;5.53;4.97;;;22.20;1.00;;;;;;8399945;28;20185;-65
2022/06/04 13:21:05;;;;;;;5.50;5.00;;;22.40;99.90;;;;;;8396145;28;20213;-64
2022/06/04 13:25:17;;;;;;;5.90;5.30;;;22.60;99.90;;;;;;8398636;28;20184;-62
2022/06/04 13:29:26;;;;;;;6.00;5.43;;;22.70;99.90;;;;;;8399672;28;20212;-63
2022/06/04 13:33:27;;;;;;;6.50;5.90;;;22.70;99.90;;;;;;8395474;28;20183;-63
2022/06/04 13:37:35;;;;;;;7.37;6.53;;;22.80;99.90;;;;;;8405154;28;20579;-65
2022/06/04 13:46:13;;;;;;;7.37;6.33;;;22.80;99.90;;;;;;8396697;28;20188;-64
2022/06/04 13:50:17;;;;;;;21.27;18.53;;;22.80;99.90;;;;;;8397938;28;20185;-62
2022/06/04 13:54:30;;;;;;;28.73;23.20;;;23.00;99.90;;;;;;8391441;28;20193;-66
2022/06/04 13:58:43;;;;;;;10.60;9.50;;;23.40;99.90;;;;;;8399916;28;20315;-64
2022/06/04 14:02:46;;;;;;;7.50;6.13;;;23.60;99.90;;;;;;8398872;28;20205;-65
2022/06/04 14:06:49;;;;;;;6.33;5.83;;;23.50;99.90;;;;;;8395148;28;20185;-64
2022/06/04 14:11:27;;;;;;;8.03;5.93;;;23.30;99.90;;;;;;8396548;28;20193;-64
2022/06/04 14:15:53;;;;;;;7.00;6.30;;;23.00;99.90;;;;;;8394498;28;20189;-67
2022/06/04 14:20:30;;;;;;;7.73;6.53;;;22.70;99.90;;;;;;8405145;28;20192;-66
2022/06/04 14:24:44;;;;;;;7.13;6.43;;;22.60;99.90;;;;;;8399587;28;20185;-68
2022/06/04 14:28:57;;;;;;;6.93;5.47;;;22.90;99.90;;;;;;8403202;28;20213;-64
2022/06/04 14:33:00;;;;;;;6.70;6.00;;;23.50;99.90;;;;;;8407274;28;20184;-64
2022/06/04 14:37:01;;;;;;;6.23;5.63;;;23.90;99.90;;;;;;8402625;28;20274;-65
2022/06/04 14:41:22;;;;;;;5.33;4.83;;;24.10;99.90;;;;;;8401992;28;20209;-64
2022/06/04 14:45:45;;;;;;;5.40;4.90;;;24.30;99.90;;;;;;8381102;28;20185;-66
2022/06/04 14:50:23;;;;;;;6.40;5.37;;;24.90;99.90;;;;;;8399962;28;20176;-66
2022/06/04 14:54:26;;;;;;;6.50;5.87;;;24.60;99.90;;;;;;8399330;28;20213;-63
2022/06/04 14:58:49;;;;;;;5.67;5.17;;;24.70;99.90;;;;;;8400549;28;20185;-68
2022/06/04 15:03:09;;;;;;;5.60;5.10;;;24.40;99.90;;;;;;8407194;28;20283;-63
2022/06/04 15:07:31;;;;;;;6.40;5.47;;;24.00;99.90;;;;;;8400760;28;20192;-66
2022/06/04 15:12:09;;;;;;;5.80;5.20;;;23.30;99.90;;;;;;8402178;28;20463;-65
2022/06/04 15:16:22;;;;;;;5.73;4.90;;;22.80;99.90;;;;;;8400631;28;20185;-65
2022/06/04 15:20:41;;;;;;;5.80;5.20;;;22.70;99.90;;;;;;8397003;28;20208;-64
2022/06/04 15:25:12;;;;;;;4.90;4.40;;;23.20;99.90;;;;;;8406494;28;20185;-66
2022/06/04 15:34:01;;;;;;;4.57;4.10;;;24.00;99.90;;;;;;8397692;28;20272;-66
2022/06/04 15:38:25;;;;;;;5.70;5.00;;;24.40;99.90;;;;;;8407628;28;20241;-66
2022/06/04 15:42:45;;;;;;;6.23;4.73;;;24.50;99.90;;;;;;8397481;28;20208;-65
2022/06/04 15:46:47;;;;;;;5.93;4.80;;;24.20;99.90;;;;;;8398393;28;20177;-66
2022/06/04 15:55:44;;;;;;;4.67;4.27;;;23.90;99.90;;;;;;8397707;28;20269;-66
2022/06/04 15:59:55;;;;;;;6.13;4.83;;;23.80;99.90;;;;;;8401000;28;20196;-68
2022/06/04 16:04:10;;;;;;;4.63;4.23;;;23.60;99.90;;;;;;8391600;28;20184;-67
2022/06/04 16:08:18;;;;;;;5.73;4.47;;;23.50;99.90;;;;;;8401341;28;20268;-66
2022/06/04 16:12:36;;;;;;;4.60;4.20;;;23.40;99.90;;;;;;8395977;28;20221;-66
2022/06/04 16:17:16;;;;;;;6.00;4.20;;;23.30;99.90;;;;;;8402699;28;20193;-65
2022/06/04 16:21:35;;;;;;;5.80;4.77;;;23.40;99.90;;;;;;8392431;28;20219;-66
2022/06/04 16:25:46;;;;;;;7.00;5.43;;;23.80;99.90;;;;;;8398063;28;20188;-64
2022/06/04 16:29:47;;;;;;;8.33;5.37;;;23.90;99.90;;;;;;8402075;28;20205;-66
2022/06/04 16:33:52;;;;;;;6.13;5.33;;;23.60;99.90;;;;;;8404123;28;20195;-67
2022/06/04 16:42:58;;;;;;;5.77;5.27;;;22.50;99.90;;;;;;8343030;28;20307;-66
2022/06/04 16:47:44;;;;;;;5.33;4.90;;;22.30;1.00;;;;;;8348205;28;20187;-64
2022/06/04 16:51:45;;;;;;;6.43;5.77;;;22.40;1.00;;;;;;8247301;28;20191;-64
2022/06/04 16:55:47;;;;;;;7.03;4.93;;;22.60;1.00;;;;;;8320657;28;20191;-64
2022/06/04 16:59:49;;;;;;;6.63;6.00;;;22.90;1.00;;;;;;8401022;28;20283;-66
2022/06/04 17:04:02;;;;;;;6.73;6.13;;;23.00;99.90;;;;;;8403521;28;20189;-67
2022/06/04 17:08:29;;;;;;;7.90;6.37;;;22.60;1.00;;;;;;8396065;28;20173;-66
2022/06/04 17:12:48;;;;;;;6.50;5.83;;;22.20;23.70;;;;;;8396213;28;20200;-66
2022/06/04 17:16:58;;;;;;;5.90;5.40;;;21.90;99.90;;;;;;8393504;28;20192;-65
2022/06/04 17:21:42;;;;;;;7.53;6.73;;;21.80;99.90;;;;;;8394841;28;20219;-66
2022/06/04 17:26:10;;;;;;;7.20;6.50;;;22.10;99.90;;;;;;8399054;28;20252;-66
2022/06/04 17:30:17;;;;;;;10.07;7.50;;;22.80;1.00;;;;;;8391624;28;20220;-66
2022/06/04 17:34:55;;;;;;;7.47;6.63;;;23.20;1.00;;;;;;8399374;28;20177;-64
2022/06/04 17:39:27;;;;;;;7.07;6.37;;;23.20;99.90;;;;;;8393533;28;20263;-65
2022/06/04 17:43:27;;;;;;;7.00;6.30;;;23.10;1.00;;;;;;8390110;28;20216;-64
2022/06/04 17:47:28;;;;;;;6.33;5.73;;;23.80;99.90;;;;;;8397343;28;20184;-67
2022/06/04 17:51:30;;;;;;;8.77;6.13;;;25.00;99.90;;;;;;8395458;28;20216;-66
2022/06/04 17:55:31;;;;;;;6.80;6.20;;;25.80;99.90;;;;;;8400110;28;20177;-67
2022/06/04 17:59:32;;;;;;;6.63;6.00;;;26.40;99.90;;;;;;8403010;28;20199;-64
2022/06/04 18:03:33;;;;;;;6.38;5.78;;;26.70;99.90;;;;;;8402491;28;20213;-65
2022/06/04 18:07:34;;;;;;;6.97;6.28;;;26.40;99.90;;;;;;8397163;28;20220;-65
2022/06/04 18:11:36;;;;;;;6.90;6.20;;;25.90;99.90;;;;;;8398603;28;20192;-65
2022/06/04 18:15:37;;;;;;;6.30;5.03;;;25.50;99.90;;;;;;8401115;28;20219;-66
2022/06/04 18:19:38;;;;;;;5.35;4.95;;;25.80;99.90;;;;;;8404836;28;20184;-64
2022/06/04 18:23:40;;;;;;;6.05;5.55;;;25.90;99.90;;;;;;8402396;28;20197;-65
2022/06/04 18:27:44;;;;;;;5.80;5.20;;;25.10;99.90;;;;;;8407043;28;21290;-65
2022/06/04 18:31:44;;;;;;;7.00;6.17;;;24.10;99.90;;;;;;8400758;28;20221;-66
2022/06/04 18:35:46;;;;;;;6.20;5.70;;;23.30;1.00;;;;;;8401701;27;20212;-65
2022/06/04 18:39:46;;;;;;;6.00;5.50;;;23.20;1.00;;;;;;8399820;28;20181;-64
2022/06/04 18:56:56;;;;;;;6.10;5.60;;;21.70;99.90;;;;;;8400948;28;20210;-65
2022/06/04 19:00:57;;;;;;;5.90;5.40;;;21.00;99.90;;;;;;8398254;28;20201;-64
2022/06/04 19:05:03;;;;;;;5.93;5.33;;;20.40;1.00;;;;;;8402859;28;20173;-65
2022/06/04 19:09:05;;;;;;;6.23;5.67;;;19.90;30.20;;;;;;8409395;28;20187;-63
2022/06/04 19:17:28;;;;;;;6.50;5.90;;;19.00;1.00;;;;;;8393435;28;20238;-64
2022/06/04 19:25:50;;;;;;;6.57;6.07;;;18.50;99.90;;;;;;8401621;28;20184;-68
2022/06/04 19:29:57;;;;;;;7.07;6.33;;;18.40;1.00;;;;;;8398261;28;20287;-67
2022/06/04 19:33:59;;;;;;;6.77;6.17;;;18.30;1.00;;;;;;8401966;28;20188;-66
2022/06/04 19:38:02;;;;;;;8.50;7.30;;;18.20;99.90;;;;;;8400351;28;20172;-68
2022/06/04 19:42:04;;;;;;;7.47;6.47;;;18.10;99.90;;;;;;8402697;28;20205;-68
2022/06/04 19:46:05;;;;;;;7.40;6.70;;;18.00;1.00;;;;;;8401268;28;20187;-68
2022/06/04 19:50:07;;;;;;;7.73;7.00;;;17.90;1.00;;;;;;8395889;28;20177;-69
2022/06/04 19:58:29;;;;;;;7.97;7.23;;;17.60;1.00;;;;;;8405395;28;20215;-68
2022/06/04 20:02:30;;;;;;;8.60;7.87;;;17.50;18.80;;;;;;8403957;28;20209;-68
2022/06/04 20:06:31;;;;;;;8.30;7.50;;;17.40;99.90;;;;;;8395067;28;20196;-68
2022/06/04 20:10:32;;;;;;;8.70;7.90;;;17.30;1.00;;;;;;8399779;28;20176;-68
2022/06/04 20:14:32;;;;;;;8.83;8.03;;;17.20;99.90;;;;;;8381599;28;20191;-68
2022/06/04 20:18:34;;;;;;;10.47;8.80;;;17.10;1.00;;;;;;8393658;28;20177;-69
2022/06/04 20:22:35;;;;;;;9.23;8.33;;;17.00;99.90;;;;;;8396452;28;20200;-68
2022/06/04 20:26:36;;;;;;;10.80;9.80;;;16.90;99.90;;;;;;8397159;28;20215;-69
2022/06/04 20:30:37;;;;;;;10.13;9.23;;;16.80;99.90;;;;;;8394399;28;20185;-69
2022/06/04 20:34:38;;;;;;;10.13;9.13;;;16.60;99.90;;;;;;8399988;28;20210;-69
2022/06/04 20:38:40;;;;;;;9.40;8.50;;;16.50;1.00;;;;;;8407498;28;20184;-69
2022/06/04 20:42:43;;;;;;;10.07;9.10;;;16.40;1.00;;;;;;8401910;28;20201;-67
2022/06/04 20:46:45;;;;;;;9.60;8.70;;;16.20;99.90;;;;;;8399362;28;20212;-69
2022/06/04 20:50:46;;;;;;;9.70;8.80;;;16.10;1.00;;;;;;8403306;28;20185;-68
2022/06/04 20:54:47;;;;;;;10.43;9.43;;;16.00;1.00;;;;;;8393070;28;20565;-68
2022/06/04 20:58:48;;;;;;;9.97;9.07;;;15.80;99.90;;;;;;8399722;28;20210;-68
2022/06/04 21:02:49;;;;;;;9.60;8.80;;;15.70;99.90;;;;;;8396517;28;20214;-68
2022/06/04 21:06:50;;;;;;;11.10;10.00;;;15.60;99.90;;;;;;8398630;28;20181;-68
2022/06/04 21:10:51;;;;;;;12.57;11.37;;;15.40;1.00;;;;;;8399295;28;20268;-68
2022/06/04 21:14:56;;;;;;;11.63;10.50;;;15.30;99.90;;;;;;8391790;28;20369;-68
2022/06/04 21:18:58;;;;;;;11.67;10.57;;;15.20;99.90;;;;;;8396169;28;20187;-69
2022/06/04 21:22:58;;;;;;;15.63;14.23;;;15.10;99.90;;;;;;8395628;28;20240;-68
2022/06/04 21:26:59;;;;;;;12.30;11.10;;;15.00;99.90;;;;;;8408572;28;20214;-68
2022/06/04 21:31:05;;;;;;;14.17;12.70;;;14.90;99.90;;;;;;8404114;28;20255;-68
2022/06/04 21:39:27;;;;;;;14.27;12.87;;;14.80;99.90;;;;;;8400583;28;20192;-69
2022/06/04 21:43:28;;;;;;;14.70;13.20;;;14.70;99.90;;;;;;8400565;28;20251;-68
2022/06/04 21:47:28;;;;;;;15.93;14.43;;;14.70;99.90;;;;;;8403725;28;20173;-68
2022/06/04 21:51:29;;;;;;;14.10;12.70;;;14.60;99.90;;;;;;8406883;28;20215;-68
2022/06/04 21:55:30;;;;;;;14.13;12.83;;;14.60;99.90;;;;;;8402381;28;20173;-69
2022/06/04 21:59:33;;;;;;;14.87;13.47;;;14.50;99.90;;;;;;8400735;28;20211;-68
2022/06/04 22:03:34;;;;;;;16.37;14.63;;;14.40;99.90;;;;;;8401030;28;20288;-68
2022/06/04 22:07:35;;;;;;;16.97;15.30;;;14.40;99.90;;;;;;8408098;28;20188;-68
2022/06/04 22:11:36;;;;;;;16.47;14.77;;;14.30;99.90;;;;;;8407444;28;20205;-68
2022/06/04 22:15:37;;;;;;;16.77;15.13;;;14.30;99.90;;;;;;8395783;28;20185;-68
2022/06/04 22:19:42;;;;;;;17.73;16.03;;;14.30;99.90;;;;;;8403034;28;20200;-68
2022/06/04 22:23:43;;;;;;;18.10;16.30;;;14.30;99.90;;;;;;8408218;28;20212;-68
2022/06/04 22:27:44;;;;;;;16.30;14.80;;;14.30;99.90;;;;;;8396959;28;20213;-69
2022/06/04 22:31:45;;;;;;;17.03;15.43;;;14.20;99.90;;;;;;8405011;28;20234;-68
2022/06/04 22:35:46;;;;;;;16.33;14.80;;;14.20;99.90;;;;;;8403016;28;20173;-68